createdAt,value
2022-10-01T00:02:17.307Z,97463.02
2022-10-01T00:04:45.395Z,97462.59
2022-10-01T00:07:15.426Z,97460.27
2022-10-01T00:09:43.664Z,97463.41
2022-10-01T00:12:15.873Z,97466.36
2022-10-01T00:14:44.722Z,97465.80
2022-10-01T00:17:13.109Z,97466.07
2022-10-01T00:19:41.335Z,97469.52
2022-10-01T00:22:09.741Z,97463.21
2022-10-01T00:24:38.861Z,97472.79
2022-10-01T00:27:07.344Z,97472.79
2022-10-01T00:29:36.675Z,97474.64
2022-10-01T00:32:05.158Z,97469.19
2022-10-01T00:34:36.066Z,97470.67
2022-10-01T00:37:05.059Z,97468.09
2022-10-01T00:39:33.336Z,97468.30
2022-10-01T00:42:01.514Z,97467.55
2022-10-01T00:44:36.202Z,97461.69
2022-10-01T00:47:33.391Z,97460.80
2022-10-01T00:50:20.648Z,97460.15
2022-10-01T00:52:54.361Z,97458.30
2022-10-01T00:55:27.137Z,97454.60
2022-10-01T00:57:55.794Z,97453.02
2022-10-01T01:00:23.958Z,97448.34
2022-10-01T01:02:53.156Z,97443.83
2022-10-01T01:05:22.024Z,97440.15
2022-10-01T01:07:52.851Z,97438.02
2022-10-01T01:10:37.649Z,97438.86
2022-10-01T01:13:16.698Z,97437.48
2022-10-01T01:15:44.921Z,97430.29
2022-10-01T01:18:30.740Z,97431.31
2022-10-01T01:21:07.725Z,97433.14
2022-10-01T01:23:51.323Z,97434.85
2022-10-01T01:26:51.895Z,97434.26
2022-10-01T01:29:29.079Z,97435.06
2022-10-01T01:32:02.328Z,97434.77
2022-10-01T01:34:33.634Z,97432.04
2022-10-01T01:37:12.342Z,97437.48
2022-10-01T01:39:47.840Z,97441.53
2022-10-01T01:42:22.512Z,97441.91
2022-10-01T01:44:54.579Z,97441.98
2022-10-01T01:47:25.221Z,97435.83
2022-10-01T01:49:53.442Z,97436.88
2022-10-01T01:52:22.274Z,97437.55
2022-10-01T01:54:51.882Z,97435.16
2022-10-01T01:57:21.288Z,97429.77
2022-10-01T01:59:50.074Z,97428.21
2022-10-01T02:02:26.302Z,97430.42
2022-10-01T02:05:02.207Z,97427.02
2022-10-01T02:07:54.181Z,97428.02
2022-10-01T02:10:25.383Z,97431.42
2022-10-01T02:13:35.428Z,97437.63
2022-10-01T02:16:25.903Z,97434.44
2022-10-01T02:19:15.239Z,97435.29
2022-10-01T02:21:54.736Z,97435.42
2022-10-01T02:24:25.890Z,97442.45
2022-10-01T02:26:56.979Z,97443.74
2022-10-01T02:29:26.324Z,97441.29
2022-10-01T02:31:56.650Z,97441.10
2022-10-01T02:34:28.716Z,97438.67
2022-10-01T02:37:01.190Z,97437.36
2022-10-01T02:39:31.924Z,97439.80
2022-10-01T02:42:02.866Z,97442.58
2022-10-01T02:44:40.313Z,97451.80
2022-10-01T02:47:24.046Z,97450.94
2022-10-01T02:49:53.499Z,97449.95
2022-10-01T02:53:11.269Z,97448.69
2022-10-01T02:55:41.762Z,97444.80
2022-10-01T02:58:10.039Z,97442.05
2022-10-01T03:00:38.186Z,97437.21
2022-10-01T03:03:06.577Z,97433.45
2022-10-01T03:05:34.770Z,97431.79
2022-10-01T03:08:03.178Z,97431.67
2022-10-01T03:10:31.425Z,97436.83
2022-10-01T03:13:01.763Z,97435.67
2022-10-01T03:15:30.103Z,97429.55
2022-10-01T03:17:58.482Z,97428.73
2022-10-01T03:20:27.067Z,97428.13
2022-10-01T03:22:55.449Z,97429.64
2022-10-01T03:25:23.850Z,97427.98
2022-10-01T03:27:52.788Z,97432.29
2022-10-01T03:30:21.705Z,97433.20
2022-10-01T03:32:50.006Z,97435.98
2022-10-01T03:35:18.333Z,97435.27
2022-10-01T03:37:47.873Z,97434.00
2022-10-01T03:40:16.248Z,97433.40
2022-10-01T03:42:44.527Z,97435.50
2022-10-01T03:45:13.148Z,97435.73
2022-10-01T03:47:41.486Z,97437.05
2022-10-01T03:50:09.670Z,97433.02
2022-10-01T03:52:37.897Z,97430.55
2022-10-01T03:55:06.836Z,97426.95
2022-10-01T03:57:35.003Z,97425.59
2022-10-01T04:00:04.509Z,97430.11
2022-10-01T04:02:40.134Z,97434.00
2022-10-01T04:05:09.055Z,97436.20
2022-10-01T04:07:37.332Z,97430.88
2022-10-01T04:10:06.284Z,97431.34
2022-10-01T04:12:34.905Z,97438.27
2022-10-01T04:15:03.181Z,97439.61
2022-10-01T04:17:32.281Z,97435.84
2022-10-01T04:20:00.962Z,97435.05
2022-10-01T04:22:29.324Z,97438.54
2022-10-01T04:24:57.709Z,97437.59
2022-10-01T04:27:26.423Z,97442.01
2022-10-01T04:29:54.620Z,97443.48
2022-10-01T04:32:22.937Z,97451.39
2022-10-01T04:34:54.309Z,97449.45
2022-10-01T04:37:23.153Z,97450.49
2022-10-01T04:39:51.337Z,97450.66
2022-10-01T04:42:20.160Z,97459.52
2022-10-01T04:44:48.417Z,97459.58
2022-10-01T04:47:16.692Z,97456.34
2022-10-01T04:49:44.930Z,97451.29
2022-10-01T04:52:13.141Z,97457.05
2022-10-01T04:54:41.730Z,97467.83
2022-10-01T04:57:10.003Z,97476.15
2022-10-01T04:59:38.178Z,97478.65
2022-10-01T05:02:06.481Z,97479.30
2022-10-01T05:04:35.039Z,97481.11
2022-10-01T05:07:03.238Z,97483.42
2022-10-01T05:09:33.948Z,97481.44
2022-10-01T05:12:02.529Z,97482.37
2022-10-01T05:14:31.422Z,97486.64
2022-10-01T05:16:59.751Z,97488.85
2022-10-01T05:19:29.458Z,97494.80
2022-10-01T05:21:57.686Z,97499.21
2022-10-01T05:24:26.214Z,97495.56
2022-10-01T05:26:54.446Z,97496.37
2022-10-01T05:29:23.158Z,97499.69
2022-10-01T05:31:51.911Z,97503.36
2022-10-01T05:34:20.201Z,97503.96
2022-10-01T05:36:48.475Z,97505.90
2022-10-01T05:39:16.773Z,97506.73
2022-10-01T05:41:45.180Z,97501.23
2022-10-01T05:44:13.639Z,97501.22
2022-10-01T05:46:43.754Z,97501.04
2022-10-01T05:49:11.929Z,97499.61
2022-10-01T05:51:40.189Z,97500.31
2022-10-01T05:54:08.670Z,97499.82
2022-10-01T05:56:37.160Z,97491.02
2022-10-01T05:59:06.209Z,97491.59
2022-10-01T06:01:35.126Z,97485.80
2022-10-01T06:04:03.929Z,97486.85
2022-10-01T06:06:32.349Z,97479.74
2022-10-01T06:09:00.620Z,97474.27
2022-10-01T06:11:29.264Z,97472.55
2022-10-01T06:13:57.543Z,97471.12
2022-10-01T06:16:25.982Z,97468.73
2022-10-01T06:18:57.600Z,97470.12
2022-10-01T06:21:27.621Z,97476.33
2022-10-01T06:23:55.866Z,97475.46
2022-10-01T06:26:24.601Z,97477.85
2022-10-01T06:28:52.911Z,97479.52
2022-10-01T06:31:21.598Z,97476.39
2022-10-01T06:33:49.847Z,97474.79
2022-10-01T06:36:18.323Z,97477.20
2022-10-01T06:38:49.725Z,97478.36
2022-10-01T06:41:18.710Z,97473.30
2022-10-01T06:43:48.809Z,97471.42
2022-10-01T06:46:17.076Z,97459.06
2022-10-01T06:48:45.566Z,97448.43
2022-10-01T06:51:13.637Z,97444.53
2022-10-01T06:53:42.084Z,97438.27
2022-10-01T06:56:10.311Z,97434.92
2022-10-01T06:58:38.588Z,97434.27
2022-10-01T07:01:06.766Z,97432.71
2022-10-01T07:03:36.074Z,97436.57
2022-10-01T07:06:05.604Z,97429.10
2022-10-01T07:08:33.848Z,97422.39
2022-10-01T07:11:02.917Z,97416.67
2022-10-01T07:13:31.682Z,97417.00
2022-10-01T07:15:59.713Z,97416.10
2022-10-01T07:18:27.869Z,97413.20
2022-10-01T07:20:59.273Z,97412.58
2022-10-01T07:23:27.396Z,97408.99
2022-10-01T07:25:55.697Z,97407.73
2022-10-01T07:28:25.847Z,97407.14
2022-10-01T07:30:58.167Z,97410.84
2022-10-01T07:33:26.546Z,97413.20
2022-10-01T07:35:55.193Z,97420.36
2022-10-01T07:38:23.201Z,97423.02
2022-10-01T07:40:59.076Z,97416.38
2022-10-01T07:43:27.251Z,97417.39
2022-10-01T07:45:58.368Z,97414.75
2022-10-01T07:48:27.608Z,97414.69
2022-10-01T07:50:57.856Z,97410.42
2022-10-01T07:53:26.381Z,97403.33
2022-10-01T07:55:54.568Z,97400.06
2022-10-01T07:58:24.259Z,97401.25
2022-10-01T08:00:58.236Z,97397.14
2022-10-01T08:03:27.278Z,97386.63
2022-10-01T08:05:55.761Z,97381.92
2022-10-01T08:08:24.030Z,97382.89
2022-10-01T08:10:52.322Z,97377.94
2022-10-01T08:13:24.880Z,97373.60
2022-10-01T08:15:55.905Z,97367.48
2022-10-01T08:18:27.064Z,97364.30
2022-10-01T08:20:55.441Z,97357.50
2022-10-01T08:23:31.418Z,97347.24
2022-10-01T08:26:07.640Z,97342.66
2022-10-01T08:28:36.213Z,97339.42
2022-10-01T08:31:10.121Z,97333.17
2022-10-01T08:33:39.020Z,97335.80
2022-10-01T08:36:08.568Z,97334.79
2022-10-01T08:38:37.667Z,97333.63
2022-10-01T08:41:26.572Z,97331.77
2022-10-01T08:43:54.951Z,97331.67
2022-10-01T08:46:27.939Z,97324.60
2022-10-01T08:49:28.188Z,97317.06
2022-10-01T08:52:06.441Z,97311.25
2022-10-01T08:54:41.408Z,97307.40
2022-10-01T08:57:19.723Z,97304.11
2022-10-01T08:59:56.830Z,97300.72
2022-10-01T09:02:26.397Z,97294.01
2022-10-01T09:05:02.155Z,97294.27
2022-10-01T09:07:48.565Z,97291.89
2022-10-01T09:10:36.095Z,97288.42
2022-10-01T09:13:34.902Z,97283.48
2022-10-01T09:16:12.890Z,97280.65
2022-10-01T09:18:50.960Z,97284.53
2022-10-01T09:21:24.966Z,97280.83
2022-10-01T09:24:22.267Z,97279.67
2022-10-01T09:26:50.338Z,97279.35
2022-10-01T09:29:27.553Z,97277.36
2022-10-01T09:31:57.863Z,97272.90
2022-10-01T09:34:38.413Z,97273.44
2022-10-01T09:37:26.461Z,97273.81
2022-10-01T09:40:12.863Z,97272.34
2022-10-01T09:42:41.235Z,97270.71
2022-10-01T09:45:15.213Z,97268.54
2022-10-01T09:47:51.509Z,97267.64
2022-10-01T09:50:28.489Z,97262.66
2022-10-01T09:53:00.659Z,97265.58
2022-10-01T09:55:54.451Z,97265.77
2022-10-01T09:58:27.800Z,97269.95
2022-10-01T10:00:57.210Z,97270.05
2022-10-01T10:03:30.778Z,97269.38
2022-10-01T10:06:00.419Z,97261.84
2022-10-01T10:08:40.400Z,97258.45
2022-10-01T10:11:20.664Z,97255.80
2022-10-01T10:14:00.223Z,97254.48
2022-10-01T10:16:38.053Z,97258.27
2022-10-01T10:19:27.542Z,97252.17
2022-10-01T10:21:59.730Z,97253.05
2022-10-01T10:24:33.728Z,97251.99
2022-10-01T10:27:04.869Z,97241.55
2022-10-01T10:29:37.649Z,97235.65
2022-10-01T10:32:28.250Z,97226.66
2022-10-01T10:35:05.309Z,97222.92
2022-10-01T10:37:37.980Z,97221.20
2022-10-01T10:40:10.630Z,97223.64
2022-10-01T10:42:39.021Z,97219.63
2022-10-01T10:45:17.711Z,97214.67
2022-10-01T10:47:49.166Z,97213.33
2022-10-01T10:50:39.461Z,97213.48
2022-10-01T10:53:22.774Z,97216.11
2022-10-01T10:56:02.717Z,97215.63
2022-10-01T10:58:39.904Z,97209.95
2022-10-01T11:01:20.418Z,97202.61
2022-10-01T11:03:53.464Z,97189.98
2022-10-01T11:06:22.344Z,97182.85
2022-10-01T11:09:00.627Z,97177.12
2022-10-01T11:11:32.347Z,97165.48
2022-10-01T11:14:08.015Z,97156.67
2022-10-01T11:17:05.942Z,97153.98
2022-10-01T11:19:43.222Z,97147.95
2022-10-01T11:22:53.893Z,97146.33
2022-10-01T11:25:48.279Z,97146.29
2022-10-01T11:28:34.647Z,97146.71
2022-10-01T11:31:29.663Z,97145.27
2022-10-01T11:34:00.719Z,97145.04
2022-10-01T11:36:36.270Z,97141.05
2022-10-01T11:39:27.238Z,97139.73
2022-10-01T11:42:19.586Z,97131.48
2022-10-01T11:45:03.390Z,97134.59
2022-10-01T11:47:42.050Z,97132.52
2022-10-01T11:50:25.379Z,97132.33
2022-10-01T11:53:33.487Z,97128.83
2022-10-01T11:56:23.364Z,97123.27
2022-10-01T11:59:05.882Z,97116.22
2022-10-01T12:02:08.433Z,97111.93
2022-10-01T12:04:48.222Z,97102.86
2022-10-01T12:07:20.473Z,97100.36
2022-10-01T12:10:07.599Z,97094.73
2022-10-01T12:12:45.105Z,97081.73
2022-10-01T12:15:44.923Z,97073.14
2022-10-01T12:18:33.681Z,97066.33
2022-10-01T12:21:07.749Z,97061.59
2022-10-01T12:23:53.508Z,97054.00
2022-10-01T12:26:44.670Z,97050.33
2022-10-01T12:29:31.891Z,97041.98
2022-10-01T12:32:22.088Z,97034.23
2022-10-01T12:35:35.516Z,97028.20
2022-10-01T12:38:19.920Z,97029.48
2022-10-01T12:41:09.098Z,97030.16
2022-10-01T12:44:13.786Z,97029.77
2022-10-01T12:46:46.707Z,97031.27
2022-10-01T12:49:30.269Z,97026.34
2022-10-01T12:52:38.195Z,97022.20
2022-10-01T12:55:07.215Z,97020.11
2022-10-01T12:57:41.123Z,97019.04
2022-10-01T13:00:32.072Z,97016.34
2022-10-01T13:03:31.145Z,97005.11
2022-10-01T13:06:36.797Z,97002.92
2022-10-01T13:09:56.439Z,97000.61
2022-10-01T13:12:39.977Z,96998.16
2022-10-01T13:15:20.296Z,97004.84
2022-10-01T13:17:58.451Z,97006.41
2022-10-01T13:20:54.744Z,96998.62
2022-10-01T13:23:39.540Z,96992.45
2022-10-01T13:26:48.782Z,96984.64
2022-10-01T13:29:54.226Z,96984.25
2022-10-01T13:32:33.459Z,96980.23
2022-10-01T13:35:22.113Z,96969.95
2022-10-01T13:37:50.433Z,96959.11
2022-10-01T13:40:35.585Z,96956.46
2022-10-01T13:43:20.225Z,96947.39
2022-10-01T13:45:54.317Z,96945.20
2022-10-01T13:48:34.802Z,96952.67
2022-10-01T13:51:09.270Z,96955.91
2022-10-01T13:53:50.196Z,96958.02
2022-10-01T13:56:35.284Z,96958.91
2022-10-01T13:59:33.659Z,96959.45
2022-10-01T14:02:03.265Z,96949.27
2022-10-01T14:04:37.885Z,96943.38
2022-10-01T14:07:17.934Z,96936.81
2022-10-01T14:09:50.536Z,96935.23
2022-10-01T14:12:48.322Z,96935.98
2022-10-01T14:15:36.359Z,96935.95
2022-10-01T14:18:09.923Z,96929.98
2022-10-01T14:21:03.081Z,96929.46
2022-10-01T14:24:26.674Z,96931.64
2022-10-01T14:27:04.866Z,96930.04
2022-10-01T14:29:38.898Z,96931.23
2022-10-01T14:32:15.699Z,96927.96
2022-10-01T14:34:49.866Z,96926.65
2022-10-01T14:37:20.002Z,96912.67
2022-10-01T14:40:01.303Z,96911.84
2022-10-01T14:42:29.444Z,96908.00
2022-10-01T14:44:57.423Z,96907.63
2022-10-01T14:47:28.046Z,96902.27
2022-10-01T14:49:56.434Z,96901.66
2022-10-01T14:52:28.433Z,96891.83
2022-10-01T14:54:56.785Z,96880.87
2022-10-01T14:57:29.658Z,96878.20
2022-10-01T15:00:01.522Z,96873.36
2022-10-01T15:02:29.696Z,96862.36
2022-10-01T15:04:58.377Z,96853.02
2022-10-01T15:07:33.436Z,96840.38
2022-10-01T15:10:17.888Z,96835.91
2022-10-01T15:12:49.857Z,96834.54
2022-10-01T15:15:31.359Z,96828.59
2022-10-01T15:18:04.818Z,96823.58
2022-10-01T15:20:35.550Z,96824.23
2022-10-01T15:23:05.976Z,96824.41
2022-10-01T15:25:34.224Z,96814.98
2022-10-01T15:28:13.073Z,96804.81
2022-10-01T15:30:46.864Z,96790.55
2022-10-01T15:33:29.182Z,96786.57
2022-10-01T15:36:04.328Z,96778.96
2022-10-01T15:38:33.748Z,96784.73
2022-10-01T15:41:26.872Z,96790.39
2022-10-01T15:43:52.502Z,96791.51
2022-10-01T15:46:33.038Z,96791.02
2022-10-01T15:49:18.243Z,96788.47
2022-10-01T15:52:22.876Z,96781.45
2022-10-01T15:54:59.933Z,96773.47
2022-10-01T15:57:33.564Z,96769.19
2022-10-01T16:00:01.936Z,96765.45
2022-10-01T16:02:33.287Z,96761.87
2022-10-01T16:05:10.178Z,96763.47
2022-10-01T16:07:40.416Z,96764.21
2022-10-01T16:10:32.741Z,96767.61
2022-10-01T16:13:20.670Z,96773.67
2022-10-01T16:16:24.748Z,96779.65
2022-10-01T16:18:56.647Z,96784.29
2022-10-01T16:21:24.917Z,96792.17
2022-10-01T16:23:54.421Z,96795.85
2022-10-01T16:26:31.256Z,96797.98
2022-10-01T16:29:06.460Z,96808.04
2022-10-01T16:31:37.148Z,96815.67
2022-10-01T16:34:14.152Z,96816.98
2022-10-01T16:36:42.738Z,96817.63
2022-10-01T16:39:13.790Z,96825.40
2022-10-01T16:41:45.203Z,96827.45
2022-10-01T16:44:14.451Z,96820.71
2022-10-01T16:46:42.877Z,96818.37
2022-10-01T16:49:14.172Z,96829.52
2022-10-01T16:51:45.872Z,96834.29
2022-10-01T16:54:24.287Z,96839.38
2022-10-01T16:56:55.185Z,96840.50
2022-10-01T16:59:24.932Z,96840.78
2022-10-01T17:01:55.995Z,96844.52
2022-10-01T17:04:29.300Z,96848.71
2022-10-01T17:07:00.048Z,96855.89
2022-10-01T17:09:28.428Z,96860.30
2022-10-01T17:11:59.171Z,96855.70
2022-10-01T17:14:27.952Z,96856.59
2022-10-01T17:16:56.026Z,96865.45
2022-10-01T17:19:24.989Z,96872.55
2022-10-01T17:21:53.396Z,96884.46
2022-10-01T17:24:21.835Z,96894.95
2022-10-01T17:26:50.157Z,96897.98
2022-10-01T17:29:18.475Z,96896.85
2022-10-01T17:31:53.439Z,96902.63
2022-10-01T17:34:22.178Z,96900.23
2022-10-01T17:36:50.447Z,96901.73
2022-10-01T17:39:18.650Z,96900.43
2022-10-01T17:41:47.188Z,96899.86
2022-10-01T17:44:16.078Z,96899.59
2022-10-01T17:46:45.275Z,96899.77
2022-10-01T17:49:14.679Z,96903.86
2022-10-01T17:51:43.068Z,96908.18
2022-10-01T17:54:11.474Z,96915.41
2022-10-01T17:56:42.194Z,96918.93
2022-10-01T17:59:10.654Z,96930.10
2022-10-01T18:01:40.298Z,96931.82
2022-10-01T18:04:12.634Z,96930.90
2022-10-01T18:06:41.320Z,96931.45
2022-10-01T18:09:09.704Z,96936.10
2022-10-01T18:11:38.487Z,96933.02
2022-10-01T18:14:07.891Z,96928.91
2022-10-01T18:16:37.452Z,96931.05
2022-10-01T18:19:52.281Z,96932.99
2022-10-01T18:21:54.909Z,96927.09
2022-10-01T18:24:23.725Z,96919.48
2022-10-01T18:26:52.109Z,96924.81
2022-10-01T18:29:26.154Z,96929.68
2022-10-01T18:32:00.917Z,96917.63
2022-10-01T18:34:38.516Z,96906.21
2022-10-01T18:37:50.614Z,96903.72
2022-10-01T18:40:20.668Z,96891.13
2022-10-01T18:43:12.706Z,96874.73
2022-10-01T18:45:59.547Z,96868.39
2022-10-01T18:48:52.093Z,96867.13
2022-10-01T18:51:41.331Z,96868.98
2022-10-01T18:54:34.611Z,96857.58
2022-10-01T18:57:24.343Z,96839.67
2022-10-01T19:00:12.943Z,96830.59
2022-10-01T19:03:02.505Z,96812.69
2022-10-01T19:05:58.392Z,96797.52
2022-10-01T19:08:54.218Z,96792.09
2022-10-01T19:11:28.969Z,96784.98
2022-10-01T19:14:42.006Z,96777.29
2022-10-01T19:17:28.816Z,96776.11
2022-10-01T19:20:21.158Z,96771.77
2022-10-01T19:23:05.530Z,96762.20
2022-10-01T19:25:40.733Z,96762.93
2022-10-01T19:28:44.729Z,96763.20
2022-10-01T19:31:39.238Z,96762.32
2022-10-01T19:34:18.920Z,96751.30
2022-10-01T19:36:55.164Z,96746.89
2022-10-01T19:39:28.289Z,96751.54
2022-10-01T19:42:05.643Z,96748.85
2022-10-01T19:44:51.648Z,96746.80
2022-10-01T19:47:51.850Z,96740.98
2022-10-01T19:50:28.232Z,96727.39
2022-10-01T19:52:58.898Z,96730.33
2022-10-01T19:55:34.016Z,96736.06
2022-10-01T19:58:18.695Z,96741.85
2022-10-01T20:00:56.114Z,96749.67
2022-10-01T20:03:57.546Z,96750.73
2022-10-01T20:06:29.874Z,96757.61
2022-10-01T20:09:03.939Z,96761.24
2022-10-01T20:11:44.758Z,96762.86
2022-10-01T20:14:57.684Z,96768.26
2022-10-01T20:17:59.442Z,96772.55
2022-10-01T20:20:36.021Z,96776.50
2022-10-01T20:23:11.357Z,96772.65
2022-10-01T20:25:57.965Z,96767.85
2022-10-01T20:29:05.460Z,96759.48
2022-10-01T20:31:54.549Z,96758.50
2022-10-01T20:34:32.323Z,96754.29
2022-10-01T20:37:35.245Z,96764.17
2022-10-01T20:40:28.239Z,96778.88
2022-10-01T20:43:09.551Z,96791.70
2022-10-01T20:45:40.539Z,96795.05
2022-10-01T20:48:24.127Z,96799.79
2022-10-01T20:50:55.570Z,96796.66
2022-10-01T20:53:39.002Z,96795.41
2022-10-01T20:56:38.501Z,96792.83
2022-10-01T20:59:17.456Z,96798.11
2022-10-01T21:02:03.007Z,96794.35
2022-10-01T21:04:40.596Z,96796.80
2022-10-01T21:07:17.118Z,96796.16
2022-10-01T21:09:50.728Z,96797.02
2022-10-01T21:12:27.163Z,96786.81
2022-10-01T21:14:57.441Z,96780.35
2022-10-01T21:17:46.952Z,96782.77
2022-10-01T21:20:35.210Z,96780.60
2022-10-01T21:23:18.430Z,96771.09
2022-10-01T21:25:59.408Z,96764.72
2022-10-01T21:28:55.002Z,96765.34
2022-10-01T21:31:49.459Z,96761.65
2022-10-01T21:34:26.723Z,96763.56
2022-10-01T21:36:58.052Z,96772.58
2022-10-01T21:40:04.114Z,96775.45
2022-10-01T21:42:44.470Z,96765.91
2022-10-01T21:45:28.829Z,96762.30
2022-10-01T21:48:12.569Z,96761.42
2022-10-01T21:50:54.565Z,96764.89
2022-10-01T21:54:07.653Z,96773.90
2022-10-01T21:57:02.500Z,96778.84
2022-10-01T22:00:13.369Z,96771.32
2022-10-01T22:02:47.688Z,96762.04
2022-10-01T22:05:29.421Z,96759.13
2022-10-01T22:08:10.473Z,96750.06
2022-10-01T22:10:44.363Z,96743.78
2022-10-01T22:13:35.374Z,96749.98
2022-10-01T22:16:10.385Z,96747.27
2022-10-01T22:18:47.461Z,96742.86
2022-10-01T22:21:47.117Z,96739.14
2022-10-01T22:24:20.809Z,96736.66
2022-10-01T22:27:11.611Z,96741.79
2022-10-01T22:29:49.009Z,96742.73
2022-10-01T22:32:21.171Z,96740.86
2022-10-01T22:34:58.254Z,96738.37
2022-10-01T22:37:34.226Z,96735.91
2022-10-01T22:40:12.016Z,96737.86
2022-10-01T22:42:46.844Z,96739.88
2022-10-01T22:45:18.599Z,96737.95
2022-10-01T22:48:07.678Z,96731.82
2022-10-01T22:51:13.932Z,96729.36
2022-10-01T22:53:57.159Z,96730.29
2022-10-01T22:56:36.354Z,96737.54
2022-10-01T22:59:19.732Z,96739.59
2022-10-01T23:02:06.609Z,96746.61
2022-10-01T23:04:51.324Z,96745.50
2022-10-01T23:07:51.837Z,96745.17
2022-10-01T23:10:41.515Z,96743.05
2022-10-01T23:13:30.273Z,96738.23
2022-10-01T23:16:04.738Z,96734.04
2022-10-01T23:18:40.343Z,96739.73
2022-10-01T23:21:26.248Z,96733.16
2022-10-01T23:24:06.589Z,96730.60
2022-10-01T23:27:04.050Z,96729.60
2022-10-01T23:30:10.217Z,96730.67
2022-10-01T23:32:44.750Z,96730.82
2022-10-01T23:35:51.311Z,96732.89
2022-10-01T23:38:45.292Z,96741.16
2022-10-01T23:41:25.500Z,96745.02
2022-10-01T23:44:08.158Z,96747.32
2022-10-01T23:46:39.936Z,96747.54
2022-10-01T23:49:15.840Z,96750.64
2022-10-01T23:51:52.445Z,96755.53
2022-10-01T23:54:30.198Z,96760.98
2022-10-01T23:57:14.118Z,96764.85
2022-10-01T23:59:52.829Z,96777.85
